Aérodrome :
LOGIN :

S'inscrire | Disclaimer

   EN    FR    IT 

 










Légende :    VFR   VFR Marginal   IFR   IFR Intensif   IFR Très Intensif
Visi : 
Plafond : 
>= 8 km
>= 3000ft
5 à 8 km
1000 à 3000 ft
1500m à 5 km
500 à 1000 ft
800 à 1500m
200 à 500 ft
< 800m
< 200 ft
Symboles :   Orages  Brouillard  Fortes neiges  Fortes précipitations  Vent > 20 kt
SIGMETs :   Divers  Orages  Givrage  Turbulence  Onde Orograph.  Cendres Volcan.







- Altitude de l'aérodrome : 325 ft
- Code IATA : BES
- Voir les cartes d'approche


LFRB - Brest

DERNIER METAR :
  • 100330Z AUTO 29003KT 9999 FEW025 SCT039 06/04 Q1031 NOSIG

METARs EXPIRÉS :
  • 100300Z AUTO 25003KT 9999 FEW027 BKN039 06/04 Q1031 NOSIG
  • 100230Z AUTO 30003KT 9999 SCT025 BKN040 06/04 Q1031 NOSIG
  • 100200Z AUTO 29003KT 9999 SCT028 BKN035 BKN042 06/04 Q1031 NOSIG
  • 100130Z AUTO 29004KT 9999 FEW025 06/04 Q1031 NOSIG
  • 100100Z AUTO 29003KT 260V320 9999 SCT027 BKN035 07/04 Q1031 NOSIG

TAF TAF LFRB
Valide du 10 à 00h jusqu'au 11 à 06h UTC


092300Z 1000/1106 30005KT 9999 SCT030
PROB30
TEMPO 1004/1006 MIFG
TEMPO 1012/1106 BKN014
ATIS : +33 2 98 32 02 71
Pas de NOTAMs connus pour ce terrain.



MET'MAP, la Météo Aéronautique d'un coup d'oeil ! - Copyright ORBIFLY Décembre 2007 - Disclaimer

ORBIFLY MET'MAP TEAM :

Programmation & Développement : Alexandra Zaïnal
Conception & Développement : Baudouin d'Aumeries
Co-Programmation & Développement : Marc-Olivier Méhu
Soutien technique & logistique : Manuel Goepfert

Contact : metmap@orbifly.com




SOURCES & CREDITS :

   NOAA